createdAt,value
2019-04-26T00:01:07.718Z,19.37
2019-04-26T00:03:41.234Z,20.80
2019-04-26T00:06:14.879Z,19.20
2019-04-26T00:08:48.753Z,19.60
2019-04-26T00:11:22.466Z,19.02
2019-04-26T00:13:55.932Z,18.32
2019-04-26T00:16:29.851Z,19.73
2019-04-26T00:19:02.298Z,19.30
2019-04-26T00:21:34.830Z,18.48
2019-04-26T00:24:08.318Z,15.98
2019-04-26T00:26:40.888Z,15.00
2019-04-26T00:29:13.013Z,15.80
2019-04-26T00:31:45.460Z,15.40
2019-04-26T00:34:18.040Z,18.23
2019-04-26T00:36:50.107Z,18.55
2019-04-26T00:39:24.833Z,16.67
2019-04-26T00:41:56.613Z,17.15
2019-04-26T00:44:28.831Z,17.45
2019-04-26T00:47:04.691Z,16.17
2019-04-26T00:49:43.807Z,16.40
2019-04-26T00:52:15.749Z,15.30
2019-04-26T00:54:48.502Z,14.98
2019-04-26T00:57:24.867Z,17.30
2019-04-26T01:00:04.178Z,15.68
2019-04-26T01:02:39.002Z,15.72
2019-04-26T01:05:11.353Z,14.83
2019-04-26T01:07:44.759Z,13.90
2019-04-26T01:10:19.667Z,14.78
2019-04-26T01:12:52.231Z,16.60
2019-04-26T01:15:24.775Z,18.12
2019-04-26T01:17:57.255Z,17.87
2019-04-26T01:20:32.170Z,17.80
2019-04-26T01:23:07.931Z,19.55
2019-04-26T01:25:43.880Z,20.05
2019-04-26T01:28:19.755Z,20.35
2019-04-26T01:30:53.603Z,19.95
2019-04-26T01:33:26.997Z,19.98
2019-04-26T01:36:12.444Z,18.85
2019-04-26T01:38:34.566Z,19.85
2019-04-26T01:41:09.706Z,19.45
2019-04-26T01:43:44.494Z,20.08
2019-04-26T01:46:22.959Z,18.20
2019-04-26T01:48:59.229Z,18.73
2019-04-26T01:51:34.960Z,19.95
2019-04-26T01:54:08.174Z,19.87
2019-04-26T01:56:40.509Z,17.75
2019-04-26T01:59:16.803Z,19.02
2019-04-26T02:01:50.395Z,19.87
2019-04-26T02:04:32.075Z,18.23
2019-04-26T02:07:05.051Z,17.25
2019-04-26T02:09:56.205Z,17.37
2019-04-26T02:12:29.286Z,17.02
2019-04-26T02:15:02.180Z,16.40
2019-04-26T02:17:34.280Z,17.20
2019-04-26T02:20:08.629Z,17.05
2019-04-26T02:22:43.396Z,19.00
2019-04-26T02:25:16.131Z,17.40
2019-04-26T02:27:48.313Z,17.85
2019-04-26T02:30:20.329Z,17.75
2019-04-26T02:32:53.045Z,18.42
2019-04-26T02:35:28.566Z,18.42
2019-04-26T02:38:00.400Z,18.50
2019-04-26T02:40:34.731Z,18.80
2019-04-26T02:43:07.098Z,17.67
2019-04-26T02:45:44.118Z,17.30
2019-04-26T02:48:19.356Z,17.50
2019-04-26T02:50:56.544Z,17.37
2019-04-26T02:53:33.666Z,18.15
2019-04-26T02:56:15.188Z,18.42
2019-04-26T02:58:50.947Z,18.02
2019-04-26T03:01:23.591Z,17.80
2019-04-26T03:03:56.274Z,18.20
2019-04-26T03:06:34.312Z,20.40
2019-04-26T03:09:08.865Z,17.40
2019-04-26T03:11:48.533Z,17.27
2019-04-26T03:14:21.768Z,17.07
2019-04-26T03:17:00.709Z,17.10
2019-04-26T03:19:39.444Z,17.55
2019-04-26T03:22:15.688Z,17.10
2019-04-26T03:24:51.083Z,16.65
2019-04-26T03:27:44.516Z,18.42
2019-04-26T03:30:22.741Z,16.97
2019-04-26T03:32:57.390Z,17.80
2019-04-26T03:35:43.915Z,17.85
2019-04-26T03:40:48.576Z,16.00
2019-04-26T03:43:23.950Z,17.02
2019-04-26T03:45:59.369Z,16.65
2019-04-26T03:48:35.903Z,17.55
2019-04-26T03:51:17.415Z,16.97
2019-04-26T03:54:02.225Z,18.92
2019-04-26T03:56:57.283Z,17.73
2019-04-26T03:59:46.185Z,18.32
2019-04-26T04:02:23.161Z,17.80
2019-04-26T04:05:00.122Z,17.65
2019-04-26T04:07:53.439Z,19.07
2019-04-26T04:10:29.856Z,17.60
2019-04-26T04:13:05.730Z,18.73
2019-04-26T04:15:42.578Z,19.40
2019-04-26T04:18:20.720Z,20.20
2019-04-26T04:20:57.730Z,19.12
2019-04-26T04:23:33.071Z,18.32
2019-04-26T04:26:09.229Z,18.80
2019-04-26T04:28:46.515Z,19.42
2019-04-26T04:31:23.980Z,19.77
2019-04-26T04:34:17.404Z,18.57
2019-04-26T04:36:53.650Z,18.30
2019-04-26T04:39:30.920Z,19.50
2019-04-26T04:42:07.995Z,18.23
2019-04-26T04:44:45.960Z,18.80
2019-04-26T04:47:25.342Z,19.02
2019-04-26T04:50:01.612Z,18.25
2019-04-26T04:52:37.772Z,19.30
2019-04-26T04:55:13.272Z,17.55
2019-04-26T04:57:50.174Z,17.10
2019-04-26T05:00:27.793Z,21.42
2019-04-26T05:03:06.315Z,18.07
2019-04-26T05:05:43.619Z,18.42
2019-04-26T05:08:29.087Z,18.17
2019-04-26T05:11:07.643Z,17.42
2019-04-26T05:13:50.021Z,16.52
2019-04-26T05:16:53.316Z,16.95
2019-04-26T05:19:30.297Z,18.60
2019-04-26T05:22:05.950Z,19.02
2019-04-26T05:24:59.433Z,18.20
2019-04-26T05:27:37.613Z,18.75
2019-04-26T05:32:48.690Z,19.82
2019-04-26T05:35:25.735Z,18.32
2019-04-26T05:38:01.202Z,19.87
2019-04-26T05:40:38.464Z,16.80
2019-04-26T05:43:15.184Z,19.10
2019-04-26T05:45:52.196Z,18.70
2019-04-26T05:48:29.070Z,18.10
2019-04-26T05:51:05.948Z,20.27
2019-04-26T05:53:42.688Z,19.02
2019-04-26T05:56:41.826Z,19.15
2019-04-26T05:59:18.392Z,18.23
2019-04-26T06:02:13.360Z,18.30
2019-04-26T06:04:51.972Z,18.82
2019-04-26T06:07:30.037Z,18.02
2019-04-26T06:10:05.202Z,18.30
2019-04-26T06:12:42.129Z,18.95
2019-04-26T06:15:19.151Z,18.40
2019-04-26T06:17:55.244Z,18.90
2019-04-26T06:20:30.731Z,19.73
2019-04-26T06:23:06.567Z,17.10
2019-04-26T06:25:43.593Z,16.73
2019-04-26T06:28:20.259Z,16.60
2019-04-26T06:30:55.526Z,16.93
2019-04-26T06:33:31.129Z,17.70
2019-04-26T06:36:10.696Z,16.48
2019-04-26T06:38:47.791Z,16.32
2019-04-26T06:41:23.832Z,16.90
2019-04-26T06:44:01.339Z,16.17
2019-04-26T06:46:39.250Z,16.15
2019-04-26T06:51:49.464Z,16.93
2019-04-26T06:54:25.231Z,17.92
2019-04-26T06:57:08.812Z,16.23
2019-04-26T06:59:39.126Z,15.40
2019-04-26T07:02:14.579Z,15.68
2019-04-26T07:04:51.197Z,15.40
2019-04-26T07:10:30.329Z,15.15
2019-04-26T07:13:07.832Z,16.20
2019-04-26T07:15:46.410Z,14.35
2019-04-26T07:18:22.278Z,14.68
2019-04-26T07:21:00.606Z,14.18
2019-04-26T07:23:46.098Z,15.03
2019-04-26T07:26:22.232Z,13.50
2019-04-26T07:28:57.683Z,14.47
2019-04-26T07:31:51.283Z,14.53
2019-04-26T07:34:27.993Z,13.50
2019-04-26T07:37:04.576Z,13.48
2019-04-26T07:39:41.407Z,13.88
2019-04-26T07:42:18.360Z,13.43
2019-04-26T07:44:55.772Z,14.87
2019-04-26T07:47:31.731Z,14.83
2019-04-26T07:50:11.900Z,14.00
2019-04-26T07:52:47.807Z,13.85
2019-04-26T07:55:27.488Z,14.98
2019-04-26T07:58:04.966Z,14.63
2019-04-26T08:01:00.995Z,13.72
2019-04-26T08:03:37.966Z,13.93
2019-04-26T08:06:13.766Z,12.88
2019-04-26T08:08:50.615Z,12.55
2019-04-26T08:11:26.076Z,13.83
2019-04-26T08:14:01.537Z,13.85
2019-04-26T08:16:37.941Z,13.55
2019-04-26T08:19:14.696Z,15.48
2019-04-26T08:21:50.303Z,14.18
2019-04-26T08:24:28.278Z,13.83
2019-04-26T08:27:13.691Z,12.70
2019-04-26T08:29:41.297Z,13.93
2019-04-26T08:32:17.819Z,13.08
2019-04-26T08:35:17.236Z,13.00
2019-04-26T08:37:49.722Z,13.20
2019-04-26T08:40:31.063Z,13.50
2019-04-26T08:45:40.459Z,14.25
2019-04-26T08:48:34.979Z,13.28
2019-04-26T08:51:10.881Z,13.98
2019-04-26T08:53:46.455Z,13.75
2019-04-26T08:56:22.592Z,13.65
2019-04-26T08:58:58.363Z,14.35
2019-04-26T09:01:36.159Z,14.78
2019-04-26T09:04:11.916Z,13.50
2019-04-26T09:07:06.821Z,14.90
2019-04-26T09:09:42.833Z,14.23
2019-04-26T09:12:23.356Z,13.30
2019-04-26T09:15:09.100Z,14.47
2019-04-26T09:17:41.638Z,13.93
2019-04-26T09:20:27.767Z,13.40
2019-04-26T09:22:51.064Z,14.05
2019-04-26T09:28:26.176Z,14.15
2019-04-26T09:30:59.826Z,13.75
2019-04-26T09:33:35.890Z,12.70
2019-04-26T09:36:07.743Z,12.43
2019-04-26T09:38:41.169Z,13.90
2019-04-26T09:41:13.217Z,13.72
2019-04-26T09:43:58.768Z,13.68
2019-04-26T09:46:34.420Z,14.00
2019-04-26T09:49:19.951Z,14.05
2019-04-26T09:51:52.506Z,14.43
2019-04-26T09:54:24.423Z,13.98
2019-04-26T09:56:57.545Z,14.73
2019-04-26T09:59:29.710Z,13.80
2019-04-26T10:02:05.280Z,13.58
2019-04-26T10:04:37.764Z,14.18
2019-04-26T10:07:10.018Z,15.38
2019-04-26T10:09:42.302Z,15.98
2019-04-26T10:12:16.570Z,17.20
2019-04-26T10:14:58.150Z,17.35
2019-04-26T10:17:31.453Z,18.30
2019-04-26T10:20:04.118Z,18.82
2019-04-26T10:22:41.304Z,17.25
2019-04-26T10:25:16.552Z,15.53
2019-04-26T10:27:47.697Z,15.25
2019-04-26T10:30:19.924Z,16.70
2019-04-26T10:32:51.449Z,15.70
2019-04-26T10:35:23.531Z,16.77
2019-04-26T10:37:56.651Z,16.57
2019-04-26T10:40:35.418Z,18.70
2019-04-26T10:43:02.631Z,18.48
2019-04-26T10:45:34.736Z,15.28
2019-04-26T10:48:09.659Z,16.10
2019-04-26T10:50:41.910Z,17.23
2019-04-26T10:53:16.114Z,16.12
2019-04-26T10:55:50.172Z,16.12
2019-04-26T10:58:23.696Z,17.27
2019-04-26T11:00:57.258Z,17.55
2019-04-26T11:03:29.337Z,17.45
2019-04-26T11:06:02.312Z,17.77
2019-04-26T11:08:34.249Z,19.52
2019-04-26T11:11:09.711Z,18.92
2019-04-26T11:13:41.588Z,20.08
2019-04-26T11:16:14.803Z,20.40
2019-04-26T11:18:46.930Z,21.35
2019-04-26T11:21:20.849Z,21.40
2019-04-26T11:23:53.420Z,20.88
2019-04-26T11:26:25.340Z,20.85
2019-04-26T11:28:58.054Z,21.75
2019-04-26T11:31:30.742Z,20.37
2019-04-26T11:34:05.388Z,20.17
2019-04-26T11:36:37.566Z,20.70
2019-04-26T11:39:14.664Z,21.52
2019-04-26T11:41:47.442Z,21.00
2019-04-26T11:44:23.429Z,19.75
2019-04-26T11:46:53.699Z,21.30
2019-04-26T11:49:27.598Z,22.90
2019-04-26T11:52:04.080Z,23.25
2019-04-26T11:54:36.371Z,25.10
2019-04-26T11:57:12.127Z,23.47
2019-04-26T11:59:43.024Z,23.27
2019-04-26T12:02:16.114Z,23.73
2019-04-26T12:04:53.877Z,22.77
2019-04-26T12:07:25.319Z,22.15
2019-04-26T12:09:58.858Z,22.80
2019-04-26T12:12:30.969Z,23.70
2019-04-26T12:15:04.050Z,22.65
2019-04-26T12:17:36.912Z,23.47
2019-04-26T12:20:11.945Z,23.20
2019-04-26T12:22:44.953Z,21.77
2019-04-26T12:25:17.201Z,22.13
2019-04-26T12:27:53.236Z,21.02
2019-04-26T12:30:42.095Z,20.65
2019-04-26T12:33:14.887Z,21.52
2019-04-26T12:35:47.108Z,20.72
2019-04-26T12:38:19.649Z,20.90
2019-04-26T12:40:51.688Z,22.65
2019-04-26T12:43:24.556Z,21.82
2019-04-26T12:46:02.561Z,21.90
2019-04-26T12:48:34.551Z,21.42
2019-04-26T12:51:08.248Z,20.50
2019-04-26T12:53:41.054Z,22.82
2019-04-26T12:56:13.224Z,22.37
2019-04-26T12:58:45.759Z,25.05
2019-04-26T13:01:19.982Z,25.88
2019-04-26T13:03:53.649Z,24.27
2019-04-26T13:06:27.809Z,20.97
2019-04-26T13:08:59.690Z,22.17
2019-04-26T13:11:31.607Z,21.05
2019-04-26T13:14:05.629Z,20.65
2019-04-26T13:16:42.693Z,19.65
2019-04-26T13:19:15.992Z,17.75
2019-04-26T13:21:51.309Z,14.35
2019-04-26T13:24:23.608Z,13.48
2019-04-26T13:26:55.961Z,12.93
2019-04-26T13:29:31.119Z,13.62
2019-04-26T13:32:02.046Z,13.90
2019-04-26T13:34:53.533Z,14.30
2019-04-26T13:37:25.936Z,14.33
2019-04-26T13:39:58.329Z,14.78
2019-04-26T13:42:30.776Z,17.25
2019-04-26T13:45:04.339Z,19.02
2019-04-26T13:47:37.768Z,23.52
2019-04-26T13:50:14.089Z,27.10
2019-04-26T13:52:46.914Z,26.95
2019-04-26T13:55:19.403Z,27.60
2019-04-26T13:57:51.653Z,26.48
2019-04-26T14:00:25.550Z,25.25
2019-04-26T14:02:57.690Z,25.05
2019-04-26T14:05:29.955Z,22.62
2019-04-26T14:08:04.078Z,18.67
2019-04-26T14:10:36.266Z,16.45
2019-04-26T14:13:08.611Z,15.13
2019-04-26T14:15:44.052Z,14.28
2019-04-26T14:18:14.721Z,13.88
2019-04-26T14:20:46.867Z,13.55
2019-04-26T14:23:20.228Z,12.88
2019-04-26T14:25:55.413Z,11.35
2019-04-26T14:28:26.142Z,12.43
2019-04-26T14:30:58.880Z,12.40
2019-04-26T14:33:32.069Z,12.20
2019-04-26T14:36:17.133Z,11.80
2019-04-26T14:38:43.054Z,11.30
2019-04-26T14:41:22.015Z,11.68
2019-04-26T14:43:52.655Z,11.90
2019-04-26T14:46:23.146Z,10.95
2019-04-26T14:49:02.005Z,11.70
2019-04-26T14:51:29.705Z,12.10
2019-04-26T14:54:03.120Z,11.80
2019-04-26T14:56:35.209Z,10.65
2019-04-26T14:59:09.917Z,11.80
2019-04-26T15:01:42.452Z,11.83
2019-04-26T15:04:15.840Z,10.88
2019-04-26T15:06:53.452Z,12.35
2019-04-26T15:09:36.592Z,12.07
2019-04-26T15:12:14.144Z,11.97
2019-04-26T15:14:43.729Z,11.35
2019-04-26T15:17:19.465Z,12.40
2019-04-26T15:19:56.915Z,14.28
2019-04-26T15:22:29.713Z,11.95
2019-04-26T15:25:20.998Z,12.63
2019-04-26T15:27:53.060Z,13.40
2019-04-26T15:30:25.179Z,13.95
2019-04-26T15:32:57.874Z,14.93
2019-04-26T15:35:32.661Z,14.47
2019-04-26T15:38:03.875Z,13.93
2019-04-26T15:40:38.271Z,13.13
2019-04-26T15:43:14.833Z,12.93
2019-04-26T15:45:47.622Z,13.90
2019-04-26T15:48:22.667Z,13.22
2019-04-26T15:50:55.740Z,13.70
2019-04-26T15:53:27.771Z,11.78
2019-04-26T15:56:02.463Z,11.25
2019-04-26T15:58:38.571Z,12.07
2019-04-26T16:01:10.883Z,11.40
2019-04-26T16:03:44.640Z,10.75
2019-04-26T16:06:16.736Z,11.08
2019-04-26T16:08:49.287Z,10.32
2019-04-26T16:11:21.561Z,10.95
2019-04-26T16:13:55.402Z,11.03
2019-04-26T16:16:29.193Z,11.45
2019-04-26T16:19:02.974Z,11.43
2019-04-26T16:21:35.990Z,11.35
2019-04-26T16:24:08.033Z,11.05
2019-04-26T16:26:44.607Z,11.10
2019-04-26T16:29:18.235Z,10.95
2019-04-26T16:31:53.093Z,11.70
2019-04-26T16:34:26.513Z,12.35
2019-04-26T16:36:58.870Z,12.07
2019-04-26T16:39:38.278Z,11.53
2019-04-26T16:42:07.331Z,12.37
2019-04-26T16:44:38.271Z,12.43
2019-04-26T16:47:10.397Z,11.78
2019-04-26T16:49:46.240Z,12.23
2019-04-26T16:52:16.806Z,12.18
2019-04-26T16:54:48.857Z,11.95
2019-04-26T16:57:24.306Z,12.35
2019-04-26T16:59:59.896Z,11.68
2019-04-26T17:02:34.234Z,11.00
2019-04-26T17:05:14.574Z,11.45
2019-04-26T17:07:39.456Z,11.20
2019-04-26T17:10:12.180Z,10.88
2019-04-26T17:12:46.216Z,10.90
2019-04-26T17:15:20.995Z,10.60
2019-04-26T17:17:52.788Z,10.15
2019-04-26T17:20:25.158Z,10.00
2019-04-26T17:23:00.935Z,10.08
2019-04-26T17:25:33.921Z,10.45
2019-04-26T17:28:06.935Z,10.90
2019-04-26T17:30:42.434Z,9.80
2019-04-26T17:33:13.143Z,9.95
2019-04-26T17:35:45.367Z,9.55
2019-04-26T17:38:17.541Z,9.23
2019-04-26T17:40:50.490Z,9.83
2019-04-26T17:43:22.682Z,9.28
2019-04-26T17:45:54.928Z,9.58
2019-04-26T17:48:27.025Z,10.00
2019-04-26T17:50:59.079Z,9.78
2019-04-26T17:53:33.606Z,9.70
2019-04-26T17:56:04.772Z,8.78
2019-04-26T17:58:49.821Z,9.60
2019-04-26T18:01:12.120Z,9.50
2019-04-26T18:03:51.298Z,9.08
2019-04-26T18:06:29.014Z,9.35
2019-04-26T18:08:54.728Z,9.50
2019-04-26T18:11:25.741Z,9.93
2019-04-26T18:13:58.035Z,9.90
2019-04-26T18:16:34.415Z,9.58
2019-04-26T18:19:07.061Z,10.13
2019-04-26T18:21:40.492Z,9.73
2019-04-26T18:24:13.183Z,10.28
2019-04-26T18:26:45.130Z,9.55
2019-04-26T18:29:17.556Z,9.73
2019-04-26T18:31:49.821Z,9.80
2019-04-26T18:34:23.160Z,9.70
2019-04-26T18:37:16.035Z,9.35
2019-04-26T18:39:48.830Z,9.90
2019-04-26T18:42:27.339Z,9.68
2019-04-26T18:47:33.126Z,8.38
2019-04-26T18:50:06.776Z,9.33
2019-04-26T18:52:41.098Z,9.45
2019-04-26T18:55:16.376Z,9.35
2019-04-26T18:57:55.883Z,9.55
2019-04-26T19:00:26.451Z,8.85
2019-04-26T19:03:00.074Z,9.48
2019-04-26T19:05:33.804Z,9.78
2019-04-26T19:08:07.592Z,9.70
2019-04-26T19:10:40.559Z,9.70
2019-04-26T19:13:14.374Z,9.23
2019-04-26T19:15:47.907Z,10.25
2019-04-26T19:18:22.093Z,10.25
2019-04-26T19:20:55.585Z,12.03
2019-04-26T19:23:29.199Z,14.40
2019-04-26T19:26:01.962Z,10.68
2019-04-26T19:28:36.007Z,11.03
2019-04-26T19:31:08.341Z,10.43
2019-04-26T19:33:40.690Z,9.88
2019-04-26T19:36:17.664Z,10.65
2019-04-26T19:38:49.806Z,10.55
2019-04-26T19:41:27.264Z,11.48
2019-04-26T19:44:01.781Z,11.35
2019-04-26T19:46:34.701Z,10.45
2019-04-26T19:49:09.223Z,11.12
2019-04-26T19:51:43.644Z,9.88
2019-04-26T19:54:38.464Z,9.98
2019-04-26T19:57:09.745Z,8.90
2019-04-26T19:59:42.405Z,10.13
2019-04-26T20:02:16.068Z,10.75
2019-04-26T20:04:48.365Z,10.35
2019-04-26T20:07:20.445Z,9.90
2019-04-26T20:09:56.348Z,10.40
2019-04-26T20:12:29.375Z,10.00
2019-04-26T20:15:02.298Z,10.40
2019-04-26T20:17:34.671Z,9.83
2019-04-26T20:20:19.235Z,8.33
2019-04-26T20:22:42.133Z,8.63
2019-04-26T20:25:14.659Z,9.23
2019-04-26T20:27:47.128Z,8.73
2019-04-26T20:30:24.410Z,8.58
2019-04-26T20:32:56.396Z,9.85
2019-04-26T20:35:31.759Z,9.00
2019-04-26T20:38:04.901Z,9.15
2019-04-26T20:40:37.184Z,10.23
2019-04-26T20:43:20.975Z,10.15
2019-04-26T20:46:07.686Z,10.20
2019-04-26T20:48:17.678Z,9.68
2019-04-26T20:50:49.846Z,9.30
2019-04-26T20:53:21.744Z,8.75
2019-04-26T20:55:54.161Z,10.38
2019-04-26T20:58:27.319Z,10.30
2019-04-26T21:01:01.360Z,11.18
2019-04-26T21:03:41.725Z,11.97
2019-04-26T21:06:07.848Z,11.80
2019-04-26T21:08:40.090Z,11.63
2019-04-26T21:11:13.721Z,12.30
2019-04-26T21:13:46.312Z,13.03
2019-04-26T21:16:18.350Z,11.63
2019-04-26T21:18:52.420Z,11.83
2019-04-26T21:21:25.179Z,11.50
2019-04-26T21:23:57.391Z,11.68
2019-04-26T21:26:32.222Z,11.15
2019-04-26T21:29:06.783Z,11.20
2019-04-26T21:31:45.504Z,10.28
2019-04-26T21:34:16.674Z,11.38
2019-04-26T21:36:50.367Z,11.35
2019-04-26T21:39:23.976Z,11.68
2019-04-26T21:41:57.876Z,11.35
2019-04-26T21:44:30.042Z,13.28
2019-04-26T21:47:03.351Z,13.10
2019-04-26T21:49:38.004Z,12.53
2019-04-26T21:52:09.317Z,12.43
2019-04-26T21:54:43.082Z,12.28
2019-04-26T21:57:18.289Z,11.73
2019-04-26T21:59:54.087Z,12.58
2019-04-26T22:02:29.610Z,12.25
2019-04-26T22:05:03.548Z,12.78
2019-04-26T22:07:39.436Z,13.13
2019-04-26T22:10:11.417Z,12.58
2019-04-26T22:12:45.091Z,13.50
2019-04-26T22:15:18.930Z,13.28
2019-04-26T22:17:54.522Z,11.97
2019-04-26T22:20:28.047Z,11.50
2019-04-26T22:23:01.453Z,12.73
2019-04-26T22:25:34.877Z,12.28
2019-04-26T22:28:07.360Z,13.35
2019-04-26T22:30:39.663Z,13.75
2019-04-26T22:33:13.187Z,13.95
2019-04-26T22:35:45.626Z,12.80
2019-04-26T22:38:23.594Z,13.95
2019-04-26T22:40:54.759Z,13.72
2019-04-26T22:43:26.644Z,13.72
2019-04-26T22:46:02.912Z,14.33
2019-04-26T22:48:35.990Z,14.03
2019-04-26T22:51:08.699Z,14.15
2019-04-26T22:53:40.665Z,13.88
2019-04-26T22:56:13.357Z,14.58
2019-04-26T22:58:45.732Z,14.50
2019-04-26T23:01:18.665Z,16.27
2019-04-26T23:03:50.784Z,15.48
2019-04-26T23:06:24.538Z,16.02
2019-04-26T23:08:56.817Z,16.25
2019-04-26T23:11:29.411Z,15.60
2019-04-26T23:14:03.437Z,16.73
2019-04-26T23:16:40.460Z,15.63
2019-04-26T23:19:15.240Z,16.12
2019-04-26T23:21:52.975Z,16.25
2019-04-26T23:24:21.432Z,17.50
2019-04-26T23:26:54.080Z,17.07
2019-04-26T23:29:26.685Z,17.60
2019-04-26T23:31:59.337Z,16.70
2019-04-26T23:34:33.344Z,18.30
2019-04-26T23:37:27.630Z,17.73
2019-04-26T23:39:59.300Z,17.35
2019-04-26T23:42:54.057Z,17.57
2019-04-26T23:45:25.482Z,19.82
2019-04-26T23:47:57.580Z,18.70
2019-04-26T23:50:30.517Z,16.90
2019-04-26T23:53:03.106Z,17.57
2019-04-26T23:55:38.104Z,17.07
2019-04-26T23:58:10.647Z,15.98
